Austin, Texas
Traffic Map
Current Weather Conditions
Austin, Texas
Few Clouds
Few Clouds
24°
Feels Like: 24°
Wind Chill: 24° Ceiling: Unl
Heat Index: 24° Visibility: 10mi
Dew Point: 22° Wind: 0mph
Humidity: 87% Direction: ° ()
Pressure: 30in Gusts: 0mph
Raw Report DataKATT 311351Z AUTO 00000KT 10SM FEW050 24/22 A3000 RMK AO2 SLP145 T02440222
Traffic Incident Summary
Active as of:
Severity:
Category:
InformationThere was an issue retrieving the traffic information for this location. Please try a different location or try again shortly.
Advertisements
Track Severe Weather on mobile